Time;durP1;ratioP1;P1;durP2;ratioP2;P2;SDS_P1;SDS_P2;PMS_P1;PMS_P2;Temp;Humidity;BMP_temperature;BMP_pressure;BME280_temperature;BME280_humidity;BME280_pressure;Samples;Min_cycle;Max_cycle;Signal;HPM_P1;HPM_P2
2021/04/22 00:00:46;;;;;;;23.02;3.63;;;9.10;55.90;;;;;;5030715;28;20025;-71
2021/04/22 00:03:12;;;;;;;21.80;4.05;;;9.10;55.70;;;;;;5029731;28;20363;-72
2021/04/22 00:05:41;;;;;;;24.50;4.25;;;9.00;56.20;;;;;;5029513;28;20056;-71
2021/04/22 00:08:11;;;;;;;17.30;3.58;;;8.90;56.90;;;;;;5032048;28;20112;-70
2021/04/22 00:10:41;;;;;;;21.23;3.90;;;8.90;57.40;;;;;;5030894;28;20037;-71
2021/04/22 00:13:07;;;;;;;22.83;4.32;;;9.00;57.30;;;;;;5030397;28;20088;-71
2021/04/22 00:15:33;;;;;;;16.67;3.38;;;9.20;57.10;;;;;;5030516;28;20049;-71
2021/04/22 00:17:59;;;;;;;30.70;4.50;;;9.20;57.00;;;;;;5030484;28;20459;-71
2021/04/22 00:20:26;;;;;;;20.08;3.45;;;9.10;57.20;;;;;;5030440;28;20026;-70
2021/04/22 00:22:52;;;;;;;24.10;3.88;;;9.20;57.00;;;;;;5031447;28;20477;-71
2021/04/22 00:25:18;;;;;;;25.08;4.07;;;8.90;57.20;;;;;;5029988;28;20061;-70
2021/04/22 00:27:44;;;;;;;24.17;4.43;;;8.90;57.30;;;;;;5030146;28;20037;-70
2021/04/22 00:30:12;;;;;;;23.80;3.67;;;8.80;56.90;;;;;;5030044;28;20041;-70
2021/04/22 00:32:40;;;;;;;29.73;4.05;;;8.70;56.70;;;;;;5030315;28;20048;-71
2021/04/22 00:35:07;;;;;;;23.73;4.50;;;8.80;56.40;;;;;;5031696;28;20399;-71
2021/04/22 00:37:33;;;;;;;17.02;4.53;;;9.00;56.00;;;;;;5030262;28;20255;-71
2021/04/22 00:39:59;;;;;;;16.27;3.63;;;8.90;55.80;;;;;;5030079;28;20432;-71
2021/04/22 00:42:25;;;;;;;17.48;3.85;;;8.90;55.90;;;;;;5030190;28;20479;-71
2021/04/22 00:44:50;;;;;;;21.27;4.25;;;9.00;56.00;;;;;;5029777;28;20061;-71
2021/04/22 00:47:18;;;;;;;22.60;3.13;;;8.80;56.20;;;;;;5029606;28;20021;-70
2021/04/22 00:49:44;;;;;;;21.60;4.50;;;8.80;56.70;;;;;;5031708;28;20343;-70
2021/04/22 00:52:10;;;;;;;21.38;3.70;;;8.70;57.20;;;;;;5029601;28;20108;-70
2021/04/22 00:54:39;;;;;;;29.83;3.83;;;8.70;57.60;;;;;;5029480;28;20037;-71
2021/04/22 00:57:08;;;;;;;16.08;3.97;;;8.70;58.00;;;;;;5029129;28;20041;-71
2021/04/22 00:59:35;;;;;;;23.38;3.78;;;8.60;58.30;;;;;;5029636;28;20049;-71
2021/04/22 01:02:13;;;;;;;10.88;3.55;;;8.70;58.20;;;;;;5031145;28;20021;-70
2021/04/22 01:04:39;;;;;;;26.58;4.25;;;8.80;58.20;;;;;;5029962;28;20041;-70
2021/04/22 01:07:06;;;;;;;27.23;3.85;;;8.90;58.40;;;;;;5029766;28;20045;-70
2021/04/22 01:09:31;;;;;;;23.85;4.30;;;9.00;58.70;;;;;;5028401;28;20040;-70
2021/04/22 01:11:58;;;;;;;22.58;3.83;;;9.00;58.80;;;;;;5029409;28;20042;-71
2021/04/22 01:14:24;;;;;;;21.55;4.57;;;9.00;58.80;;;;;;5029555;28;20025;-71
2021/04/22 01:16:50;;;;;;;14.48;3.75;;;8.80;59.10;;;;;;5031103;28;20010;-71
2021/04/22 01:19:16;;;;;;;18.05;3.95;;;8.90;59.10;;;;;;5029156;28;20498;-70
2021/04/22 01:21:42;;;;;;;21.88;3.72;;;8.70;59.20;;;;;;5029114;28;20045;-71
2021/04/22 01:24:10;;;;;;;17.20;3.72;;;8.80;59.30;;;;;;5029102;28;20552;-70
2021/04/22 01:26:36;;;;;;;18.92;3.65;;;8.80;59.20;;;;;;5028306;28;20103;-70
2021/04/22 01:29:03;;;;;;;23.45;4.30;;;8.70;59.50;;;;;;5031165;28;20026;-71
2021/04/22 01:31:29;;;;;;;32.47;4.22;;;8.80;59.50;;;;;;5029552;28;20033;-71
2021/04/22 01:34:03;;;;;;;22.92;4.50;;;8.80;59.50;;;;;;5029030;28;20044;-71
2021/04/22 01:36:44;;;;;;;19.25;4.05;;;8.90;59.40;;;;;;5029252;28;20048;-70
2021/04/22 01:39:12;;;;;;;27.73;3.88;;;8.90;59.40;;;;;;5029399;28;20126;-70
2021/04/22 01:41:38;;;;;;;26.05;4.63;;;8.90;59.60;;;;;;5028958;28;20128;-70
2021/04/22 01:44:06;;;;;;;24.60;4.25;;;8.80;59.70;;;;;;5030603;28;20087;-70
2021/04/22 01:46:34;;;;;;;17.95;3.55;;;8.60;60.00;;;;;;5029112;28;20096;-70
2021/04/22 01:48:59;;;;;;;18.58;3.88;;;8.70;59.90;;;;;;5027869;28;20526;-70
2021/04/22 01:51:25;;;;;;;17.65;3.92;;;8.70;60.10;;;;;;5028060;28;20077;-70
2021/04/22 01:53:51;;;;;;;19.15;3.42;;;8.70;60.20;;;;;;5029414;28;20026;-71
2021/04/22 01:56:18;;;;;;;25.05;4.28;;;8.60;60.20;;;;;;5028256;28;20026;-72
2021/04/22 01:58:44;;;;;;;20.10;3.85;;;8.40;60.50;;;;;;5030814;28;20022;-71
2021/04/22 02:01:10;;;;;;;19.85;3.92;;;8.60;60.40;;;;;;5029028;28;20418;-71
2021/04/22 02:03:36;;;;;;;22.75;4.30;;;8.60;60.40;;;;;;5029283;28;20459;-71
2021/04/22 02:06:04;;;;;;;26.00;4.95;;;8.50;60.70;;;;;;5028812;28;20048;-70
2021/04/22 02:08:30;;;;;;;;;;;8.50;60.90;;;;;;5029389;28;20029;-71
2021/04/22 02:10:56;;;;;;;20.63;4.15;;;8.60;60.80;;;;;;5034101;28;19921;-71
2021/04/22 02:13:24;;;;;;;15.68;3.67;;;8.50;60.80;;;;;;5032567;28;20045;-71
2021/04/22 02:15:50;;;;;;;30.48;3.97;;;8.60;61.00;;;;;;5032582;28;20041;-71
2021/04/22 02:18:16;;;;;;;29.70;4.57;;;8.50;61.20;;;;;;5032524;28;20446;-71
2021/04/22 02:20:44;;;;;;;15.60;3.80;;;8.50;61.70;;;;;;5032667;28;20041;-71
2021/04/22 02:23:14;;;;;;;23.58;4.20;;;8.60;61.50;;;;;;5032110;28;20049;-70
2021/04/22 02:25:40;;;;;;;23.20;4.30;;;8.60;61.40;;;;;;5032995;28;20309;-70
2021/04/22 02:28:06;;;;;;;27.58;4.28;;;8.40;62.00;;;;;;5032135;28;20037;-71
2021/04/22 02:30:34;;;;;;;27.63;5.53;;;8.30;62.80;;;;;;5031407;28;20056;-71
2021/04/22 02:33:02;;;;;;;17.67;3.20;;;8.40;62.80;;;;;;5032460;28;20041;-70
2021/04/22 02:35:30;;;;;;;16.15;3.70;;;8.40;62.70;;;;;;5032049;28;20049;-71
2021/04/22 02:37:56;;;;;;;;;;;8.30;63.40;;;;;;5034286;28;20041;-70
2021/04/22 02:40:26;;;;;;;21.98;4.00;;;8.30;63.80;;;;;;5047719;28;19908;-71
2021/04/22 02:42:53;;;;;;;23.50;3.97;;;8.30;63.80;;;;;;5031701;28;20048;-71
2021/04/22 02:45:22;;;;;;;14.68;3.08;;;8.30;64.00;;;;;;5032115;28;20041;-71
2021/04/22 02:47:48;;;;;;;24.33;6.20;;;8.40;64.10;;;;;;5031930;28;20081;-70
2021/04/22 02:50:17;;;;;;;18.95;4.00;;;8.30;64.30;;;;;;5031831;28;20080;-70
2021/04/22 02:52:43;;;;;;;22.83;3.67;;;8.30;64.30;;;;;;5033236;28;20088;-70
2021/04/22 02:55:10;;;;;;;19.70;4.05;;;8.30;64.70;;;;;;5032069;28;20041;-70
2021/04/22 02:57:35;;;;;;;20.92;3.92;;;8.30;64.60;;;;;;5031817;28;20041;-72
2021/04/22 03:00:03;;;;;;;28.55;4.15;;;8.40;64.60;;;;;;5031638;28;20124;-71
2021/04/22 03:02:28;;;;;;;17.25;3.80;;;8.50;64.50;;;;;;5031581;28;20056;-71
2021/04/22 03:04:54;;;;;;;23.50;3.75;;;8.40;64.80;;;;;;5032243;28;20029;-71
2021/04/22 03:07:20;;;;;;;19.13;4.13;;;8.50;65.20;;;;;;5027104;28;20038;-71
2021/04/22 03:09:46;;;;;;;22.58;3.63;;;8.50;65.40;;;;;;5025266;28;20049;-71
2021/04/22 03:12:12;;;;;;;16.85;3.80;;;8.40;65.70;;;;;;5030688;28;20045;-71
2021/04/22 03:14:37;;;;;;;24.60;4.40;;;8.50;65.80;;;;;;5032029;28;20045;-71
2021/04/22 03:17:03;;;;;;;17.52;3.72;;;8.60;65.90;;;;;;5033156;28;20025;-71
2021/04/22 03:19:28;;;;;;;17.85;3.50;;;8.50;65.60;;;;;;5031729;28;20094;-70
2021/04/22 03:21:54;;;;;;;27.35;4.63;;;8.50;65.50;;;;;;5031013;28;20037;-70
2021/04/22 03:24:19;;;;;;;14.18;3.58;;;8.40;65.90;;;;;;5031380;28;20079;-71
2021/04/22 03:26:45;;;;;;;23.17;3.90;;;8.40;65.60;;;;;;5031073;28;20057;-72
2021/04/22 03:29:11;;;;;;;27.77;3.85;;;8.30;65.80;;;;;;5031254;28;20033;-71
2021/04/22 03:31:36;;;;;;;25.75;3.70;;;8.30;66.10;;;;;;5032864;28;20045;-70
2021/04/22 03:34:02;;;;;;;21.55;3.47;;;8.40;65.80;;;;;;5031358;28;20124;-71
2021/04/22 03:36:28;;;;;;;21.38;3.65;;;8.40;65.70;;;;;;5030684;28;20049;-72
2021/04/22 03:38:54;;;;;;;21.60;3.85;;;8.40;66.30;;;;;;5029540;28;20126;-71
2021/04/22 03:41:21;;;;;;;19.17;3.67;;;8.50;66.50;;;;;;5030736;28;20017;-71
2021/04/22 03:43:46;;;;;;;20.05;3.55;;;8.60;66.30;;;;;;5032234;28;20060;-71
2021/04/22 03:46:12;;;;;;;16.85;3.30;;;8.60;66.50;;;;;;5031090;28;20442;-69
2021/04/22 03:48:38;;;;;;;22.60;3.58;;;8.40;67.30;;;;;;5030946;28;20029;-69
2021/04/22 03:51:04;;;;;;;19.00;3.40;;;8.30;67.90;;;;;;5030815;28;20080;-70
2021/04/22 03:53:29;;;;;;;22.73;3.80;;;8.50;67.30;;;;;;5030679;28;20033;-70
2021/04/22 03:55:55;;;;;;;21.80;3.78;;;8.60;67.10;;;;;;5032236;28;20022;-70
2021/04/22 03:58:20;;;;;;;26.38;4.25;;;8.60;66.60;;;;;;5030908;28;20034;-71
2021/04/22 04:00:46;;;;;;;14.95;2.80;;;8.60;67.00;;;;;;5030577;28;20438;-70
2021/04/22 04:03:12;;;;;;;16.38;2.78;;;8.50;67.00;;;;;;5030340;28;20123;-71
2021/04/22 04:05:37;;;;;;;19.05;3.50;;;8.50;67.10;;;;;;5030710;28;20081;-70
2021/04/22 04:08:03;;;;;;;22.00;3.33;;;8.50;67.10;;;;;;5031879;28;20457;-70
2021/04/22 04:10:29;;;;;;;23.45;3.92;;;8.50;67.30;;;;;;5030452;28;20038;-71
2021/04/22 04:12:54;;;;;;;18.42;3.83;;;8.60;67.20;;;;;;5030524;28;20034;-70
2021/04/22 04:15:20;;;;;;;19.45;4.35;;;8.50;66.70;;;;;;5030201;28;20037;-70
2021/04/22 04:17:46;;;;;;;23.65;3.95;;;8.50;66.60;;;;;;5030392;28;20466;-71
2021/04/22 04:20:13;;;;;;;18.25;4.38;;;8.40;66.50;;;;;;5030246;28;20453;-70
2021/04/22 04:22:39;;;;;;;20.63;4.03;;;8.30;66.40;;;;;;5031205;28;20085;-70
2021/04/22 04:25:06;;;;;;;15.23;3.60;;;8.40;66.70;;;;;;5030065;28;20482;-72
2021/04/22 04:27:32;;;;;;;15.00;2.92;;;8.40;67.00;;;;;;5029975;28;20052;-71
2021/04/22 04:29:58;;;;;;;22.85;3.40;;;8.30;66.90;;;;;;5029326;28;20128;-71
2021/04/22 04:32:24;;;;;;;27.88;3.33;;;8.40;66.70;;;;;;5029234;28;20383;-71
2021/04/22 04:34:49;;;;;;;13.85;3.17;;;8.40;66.60;;;;;;5031682;28;20049;-73
2021/04/22 04:37:15;;;;;;;21.00;3.72;;;8.40;66.60;;;;;;5028959;28;20041;-72
2021/04/22 04:39:40;;;;;;;16.08;2.95;;;8.40;66.70;;;;;;5029842;28;20041;-72
2021/04/22 04:42:07;;;;;;;21.15;3.45;;;8.30;66.80;;;;;;5029904;28;20075;-71
2021/04/22 04:44:33;;;;;;;16.08;3.53;;;8.30;66.80;;;;;;5029435;28;20095;-71
2021/04/22 04:46:59;;;;;;;16.52;3.22;;;8.30;66.80;;;;;;5030364;28;20018;-70
2021/04/22 04:49:25;;;;;;;17.08;3.38;;;8.40;66.60;;;;;;5029632;28;20049;-71
2021/04/22 04:51:50;;;;;;;17.75;3.67;;;8.50;66.60;;;;;;5029680;28;20075;-71
2021/04/22 04:54:16;;;;;;;18.65;3.00;;;8.60;66.40;;;;;;5029409;28;20034;-70
2021/04/22 04:56:42;;;;;;;18.50;3.55;;;8.60;66.20;;;;;;5029567;28;20037;-71
2021/04/22 04:59:07;;;;;;;14.93;3.15;;;8.50;66.70;;;;;;5031022;28;20026;-71
2021/04/22 05:01:33;;;;;;;22.02;3.88;;;8.40;67.00;;;;;;5029707;28;20497;-71
2021/04/22 05:03:59;;;;;;;19.13;2.88;;;8.50;67.10;;;;;;5029263;28;20041;-72
2021/04/22 05:06:24;;;;;;;14.48;3.38;;;8.70;66.70;;;;;;5029534;28;20044;-72
2021/04/22 05:08:50;;;;;;;13.95;2.97;;;8.60;66.30;;;;;;5029473;28;20180;-71
2021/04/22 05:11:15;;;;;;;14.38;3.42;;;8.70;66.30;;;;;;5029375;28;20022;-71
2021/04/22 05:13:41;;;;;;;19.02;3.17;;;8.60;66.60;;;;;;5030905;28;20455;-72
2021/04/22 05:16:07;;;;;;;21.23;3.75;;;8.60;66.50;;;;;;5029221;28;20087;-70
2021/04/22 05:18:32;;;;;;;22.50;3.83;;;8.50;67.10;;;;;;5029313;28;20037;-70
2021/04/22 05:20:58;;;;;;;26.63;4.45;;;8.40;67.00;;;;;;5029588;28;20037;-70
2021/04/22 05:23:24;;;;;;;15.88;3.10;;;8.60;66.90;;;;;;5028933;28;20557;-71
2021/04/22 05:25:50;;;;;;;26.38;4.38;;;8.60;66.50;;;;;;5030517;28;20014;-71
2021/04/22 05:28:16;;;;;;;29.42;3.72;;;8.70;67.10;;;;;;5028976;28;20481;-71
2021/04/22 05:30:43;;;;;;;26.70;4.32;;;8.70;66.80;;;;;;5029288;28;20048;-70
2021/04/22 05:33:09;;;;;;;22.17;3.90;;;8.80;66.80;;;;;;5029230;28;20033;-70
2021/04/22 05:35:35;;;;;;;22.67;3.15;;;8.60;67.10;;;;;;5028926;28;20770;-72
2021/04/22 05:38:01;;;;;;;14.90;3.20;;;8.50;67.60;;;;;;5030489;28;20029;-76
2021/04/22 05:40:27;;;;;;;23.10;3.05;;;8.70;69.50;;;;;;5029257;28;20132;-84
2021/04/22 05:42:53;;;;;;;18.17;4.13;;;9.20;70.20;;;;;;5029307;28;20055;-80
2021/04/22 05:45:18;;;;;;;20.38;3.55;;;9.20;67.40;;;;;;5020609;28;20034;-80
2021/04/22 05:47:46;;;;;;;22.58;3.35;;;9.10;67.60;;;;;;5017818;28;20033;-79
2021/04/22 05:50:14;;;;;;;20.42;3.42;;;8.90;66.90;;;;;;5032776;28;20323;-80
2021/04/22 05:52:39;;;;;;;19.40;3.35;;;8.80;67.40;;;;;;5034632;28;20021;-82
2021/04/22 05:55:07;;;;;;;19.35;3.38;;;9.00;67.40;;;;;;5031827;28;20041;-80
2021/04/22 05:57:34;;;;;;;22.77;3.65;;;9.00;67.10;;;;;;5032754;28;20471;-78
2021/04/22 06:00:00;;;;;;;15.27;3.60;;;8.90;67.10;;;;;;5032788;28;20049;-80
2021/04/22 06:02:25;;;;;;;15.30;2.97;;;9.00;67.30;;;;;;5031622;28;20454;-78
2021/04/22 06:04:51;;;;;;;18.83;3.22;;;8.90;67.30;;;;;;5034071;28;20101;-80
2021/04/22 06:07:17;;;;;;;24.25;3.65;;;9.00;67.70;;;;;;5032572;28;20139;-79
2021/04/22 06:09:43;;;;;;;24.52;3.90;;;9.10;67.30;;;;;;5032540;28;20037;-81
2021/04/22 06:12:11;;;;;;;17.58;3.25;;;9.20;67.20;;;;;;5032393;28;20037;-80
2021/04/22 06:14:37;;;;;;;25.02;3.50;;;9.40;66.90;;;;;;5031836;28;20443;-80
2021/04/22 06:17:03;;;;;;;18.77;3.30;;;9.10;67.40;;;;;;5033584;28;20121;-79
2021/04/22 06:19:29;;;;;;;24.33;3.42;;;9.00;67.40;;;;;;5032096;28;20053;-80
2021/04/22 06:21:54;;;;;;;18.42;3.33;;;8.90;67.50;;;;;;5031447;28;20050;-79
2021/04/22 06:24:20;;;;;;;26.10;4.05;;;9.10;67.40;;;;;;5032372;28;20077;-80
2021/04/22 06:26:47;;;;;;;19.40;3.30;;;9.40;67.10;;;;;;5032422;28;20060;-80
2021/04/22 06:29:13;;;;;;;22.27;4.10;;;9.20;66.80;;;;;;5032178;28;20158;-80
2021/04/22 06:31:38;;;;;;;18.45;3.58;;;9.30;66.60;;;;;;5033734;28;20029;-81
2021/04/22 06:34:04;;;;;;;27.05;3.70;;;9.50;66.40;;;;;;5032344;28;20089;-80
2021/04/22 06:36:30;;;;;;;25.33;3.50;;;9.60;66.20;;;;;;5032114;28;20598;-80
2021/04/22 06:38:55;;;;;;;18.63;3.22;;;9.60;65.90;;;;;;5031029;28;20037;-81
2021/04/22 06:41:21;;;;;;;15.50;2.80;;;9.60;65.70;;;;;;5031862;28;20025;-81
2021/04/22 06:43:47;;;;;;;19.27;3.58;;;9.50;66.20;;;;;;5033262;28;20022;-80
2021/04/22 06:46:12;;;;;;;22.85;3.85;;;9.40;66.50;;;;;;5030382;28;20073;-79
2021/04/22 06:48:38;;;;;;;28.70;3.90;;;9.70;66.20;;;;;;5031504;28;20037;-80
2021/04/22 06:51:06;;;;;;;26.33;3.72;;;9.70;65.50;;;;;;5030458;28;20053;-80
2021/04/22 06:53:31;;;;;;;24.63;3.90;;;9.70;65.40;;;;;;5031649;28;20112;-80
2021/04/22 06:55:58;;;;;;;10.95;2.72;;;9.50;65.60;;;;;;5032584;28;20339;-80
2021/04/22 06:58:24;;;;;;;23.25;3.40;;;9.30;66.10;;;;;;5031488;28;20344;-80
2021/04/22 07:00:49;;;;;;;13.93;2.90;;;9.50;66.30;;;;;;5030439;28;20044;-79
2021/04/22 07:03:15;;;;;;;22.17;3.58;;;9.60;66.00;;;;;;5031059;28;20509;-80
2021/04/22 07:05:41;;;;;;;15.68;2.88;;;9.30;66.40;;;;;;5031345;28;20030;-80
2021/04/22 07:08:06;;;;;;;18.15;3.50;;;9.50;66.60;;;;;;5033153;28;20402;-81
2021/04/22 07:10:33;;;;;;;21.88;3.17;;;9.90;66.00;;;;;;5030439;28;20495;-80
2021/04/22 07:12:58;;;;;;;15.80;3.25;;;10.20;64.30;;;;;;5031226;28;20033;-82
2021/04/22 07:15:24;;;;;;;15.27;3.22;;;10.50;63.80;;;;;;5029984;28;20071;-82
2021/04/22 07:17:50;;;;;;;19.30;3.55;;;10.50;62.80;;;;;;5031396;28;20037;-80
2021/04/22 07:20:19;;;;;;;17.27;2.70;;;11.10;62.60;;;;;;5031513;28;20029;-81
2021/04/22 07:22:44;;;;;;;22.20;3.05;;;11.40;61.60;;;;;;5032620;28;20072;-82
2021/04/22 07:25:12;;;;;;;21.02;3.35;;;11.40;60.20;;;;;;5031206;28;20057;-82
2021/04/22 07:27:39;;;;;;;16.17;2.97;;;11.70;60.20;;;;;;5030886;28;20103;-81
2021/04/22 07:30:06;;;;;;;18.23;3.55;;;11.30;59.10;;;;;;5030955;28;20124;-82
2021/04/22 07:32:32;;;;;;;14.73;2.70;;;10.80;59.60;;;;;;5030600;28;20037;-82
2021/04/22 07:34:58;;;;;;;14.70;3.03;;;11.40;60.20;;;;;;5031813;28;20332;-81
2021/04/22 07:37:24;;;;;;;14.07;3.10;;;11.30;59.00;;;;;;5029497;28;20049;-82
2021/04/22 07:39:49;;;;;;;12.63;3.08;;;11.00;59.20;;;;;;5030473;28;20140;-81
2021/04/22 07:42:15;;;;;;;15.10;3.30;;;11.20;59.60;;;;;;5029580;28;20041;-83
2021/04/22 07:44:42;;;;;;;13.35;2.65;;;11.70;59.50;;;;;;5030781;28;20049;-84
2021/04/22 07:47:08;;;;;;;16.58;2.60;;;11.70;58.60;;;;;;5031956;28;20056;-82
2021/04/22 07:49:35;;;;;;;14.95;3.38;;;11.40;58.40;;;;;;5029743;28;20103;-82
2021/04/22 07:52:02;;;;;;;15.82;2.45;;;11.20;59.00;;;;;;5029587;28;20068;-83
2021/04/22 07:54:27;;;;;;;18.27;2.95;;;11.60;59.20;;;;;;5030588;28;20076;-81
2021/04/22 07:56:53;;;;;;;18.27;2.92;;;12.20;58.80;;;;;;5030696;28;20033;-82
2021/04/22 07:59:19;;;;;;;10.60;2.90;;;12.60;56.90;;;;;;5030367;28;20020;-83
2021/04/22 08:01:44;;;;;;;23.65;3.10;;;12.40;57.00;;;;;;5032068;28;20403;-82
2021/04/22 08:04:10;;;;;;;20.90;2.53;;;12.80;56.40;;;;;;5030369;28;20044;-83
2021/04/22 08:06:36;;;;;;;15.02;2.95;;;13.00;55.40;;;;;;5028599;28;20065;-82
2021/04/22 08:09:02;;;;;;;15.48;3.38;;;12.70;55.40;;;;;;5030296;28;20029;-83
2021/04/22 08:11:28;;;;;;;15.30;3.25;;;12.50;55.60;;;;;;5029305;28;20104;-85
2021/04/22 08:13:54;;;;;;;16.27;3.30;;;12.30;56.00;;;;;;5031876;28;20029;-82
2021/04/22 08:16:20;;;;;;;20.80;3.20;;;12.50;56.30;;;;;;5029082;28;20045;-83
2021/04/22 08:18:46;;;;;;;14.88;3.17;;;12.70;56.30;;;;;;5030141;28;20691;-82
2021/04/22 08:21:11;;;;;;;11.45;2.00;;;12.60;55.50;;;;;;5028326;28;20067;-82
2021/04/22 08:23:37;;;;;;;10.98;2.88;;;12.20;54.80;;;;;;5029530;28;20041;-83
2021/04/22 08:26:07;;;;;;;13.25;2.65;;;12.20;54.10;;;;;;5030670;28;20029;-83
2021/04/22 08:28:35;;;;;;;9.63;2.35;;;12.30;54.00;;;;;;5030666;28;20176;-81
2021/04/22 08:31:09;;;;;;;10.55;2.30;;;13.00;54.00;;;;;;5029991;28;20059;-83
2021/04/22 08:33:37;;;;;;;13.73;3.17;;;13.70;52.60;;;;;;5030130;28;20053;-83
2021/04/22 08:36:07;;;;;;;14.73;2.75;;;13.90;51.80;;;;;;5029831;28;20068;-83
2021/04/22 08:38:34;;;;;;;13.35;2.40;;;14.10;51.10;;;;;;5028579;28;20045;-83
2021/04/22 08:41:01;;;;;;;10.65;2.58;;;14.40;51.10;;;;;;5030378;28;20056;-83
2021/04/22 08:43:27;;;;;;;11.93;2.70;;;14.70;49.90;;;;;;5029958;28;20072;-83
2021/04/22 08:45:53;;;;;;;10.27;2.17;;;15.70;49.80;;;;;;5030069;28;20517;-83
2021/04/22 08:48:20;;;;;;;13.68;2.28;;;17.00;48.20;;;;;;5029727;28;20072;-83
2021/04/22 08:50:49;;;;;;;12.32;2.95;;;17.20;45.60;;;;;;5029223;28;20061;-84
2021/04/22 08:53:18;;;;;;;12.65;2.72;;;15.90;44.70;;;;;;5029811;28;20443;-83
2021/04/22 08:55:44;;;;;;;16.20;3.35;;;15.30;45.40;;;;;;5031287;28;20113;-81
2021/04/22 08:58:10;;;;;;;15.20;3.17;;;14.50;47.40;;;;;;5029345;28;20030;-83
2021/04/22 09:00:49;;;;;;;12.70;2.42;;;15.00;47.00;;;;;;5028556;28;20053;-81
2021/04/22 09:03:15;;;;;;;14.55;3.08;;;15.00;46.00;;;;;;5028165;28;20029;-84
2021/04/22 09:05:41;;;;;;;11.15;2.42;;;15.40;45.90;;;;;;5028138;28;20344;-83
2021/04/22 09:08:08;;;;;;;9.68;2.15;;;14.90;44.20;;;;;;5030958;28;20053;-80
2021/04/22 09:10:35;;;;;;;11.50;2.75;;;15.00;45.30;;;;;;5028549;28;20056;-82
2021/04/22 09:13:02;;;;;;;9.88;1.90;;;15.30;45.10;;;;;;5028993;28;20059;-83
2021/04/22 09:15:31;;;;;;;11.13;2.30;;;15.00;45.30;;;;;;5029311;28;20362;-80
2021/04/22 09:18:03;;;;;;;11.68;2.78;;;14.30;45.80;;;;;;5028258;28;20041;-82
2021/04/22 09:20:47;;;;;;;9.77;2.28;;;14.10;46.30;;;;;;5029695;28;20126;-83
2021/04/22 09:23:19;;;;;;;10.52;3.05;;;14.90;46.30;;;;;;5027952;28;20069;-83
2021/04/22 09:25:52;;;;;;;8.75;1.90;;;14.80;44.50;;;;;;5030663;28;20017;-84
2021/04/22 09:28:18;;;;;;;11.02;2.33;;;15.60;44.70;;;;;;5028866;28;20450;-83
2021/04/22 09:30:45;;;;;;;9.43;2.30;;;16.40;43.30;;;;;;5029138;28;20038;-83
2021/04/22 09:33:40;;;;;;;11.23;2.70;;;16.60;42.50;;;;;;5029054;28;20046;-81
2021/04/22 09:36:10;;;;;;;11.15;2.90;;;16.10;43.40;;;;;;5028390;28;20087;-84
2021/04/22 09:38:37;;;;;;;8.70;2.20;;;16.00;42.50;;;;;;5028665;28;20098;-83
2021/04/22 09:41:16;;;;;;;11.15;2.33;;;16.00;42.90;;;;;;5030642;28;20033;-83
2021/04/22 09:43:43;;;;;;;16.02;2.92;;;15.70;43.00;;;;;;5029374;28;20025;-83
2021/04/22 09:46:22;;;;;;;13.00;3.00;;;15.90;43.20;;;;;;5028060;28;20179;-84
2021/04/22 09:48:48;;;;;;;12.80;2.80;;;15.10;42.30;;;;;;5028932;28;20044;-84
2021/04/22 09:51:30;;;;;;;10.70;3.13;;;15.10;42.90;;;;;;5028700;28;20044;-83
2021/04/22 09:54:13;;;;;;;13.52;2.60;;;15.40;42.70;;;;;;5029570;28;20371;-83
2021/04/22 09:56:45;;;;;;;9.25;1.92;;;15.50;42.50;;;;;;5029198;28;20030;-82
2021/04/22 09:59:16;;;;;;;20.00;2.92;;;15.80;42.60;;;;;;5028995;28;20082;-82
2021/04/22 10:01:42;;;;;;;9.70;2.50;;;16.20;42.30;;;;;;5029525;28;20399;-83
2021/04/22 10:04:08;;;;;;;14.55;2.30;;;16.10;42.00;;;;;;5028619;28;20470;-82
2021/04/22 10:06:38;;;;;;;9.63;2.30;;;16.90;41.80;;;;;;5028486;28;20060;-84
2021/04/22 10:09:05;;;;;;;13.45;3.00;;;17.90;41.50;;;;;;5029188;28;20122;-84
2021/04/22 10:11:49;;;;;;;15.23;2.53;;;17.40;40.10;;;;;;5028759;28;20025;-83
2021/04/22 10:14:15;;;;;;;15.45;3.03;;;17.40;40.60;;;;;;5028496;28;20483;-83
2021/04/22 10:16:42;;;;;;;9.45;2.42;;;16.10;40.90;;;;;;5029262;28;20396;-83
2021/04/22 10:19:18;;;;;;;11.23;2.53;;;15.80;40.80;;;;;;5028702;28;20072;-83
2021/04/22 10:21:44;;;;;;;13.23;2.13;;;16.30;41.00;;;;;;5028831;28;20443;-82
2021/04/22 10:24:17;;;;;;;14.82;3.70;;;17.10;40.20;;;;;;5028684;28;20207;-83
2021/04/22 10:26:44;;;;;;;11.75;2.88;;;17.40;40.00;;;;;;5028446;28;20045;-82
2021/04/22 10:29:11;;;;;;;15.48;2.50;;;17.00;39.70;;;;;;5028278;28;20371;-84
2021/04/22 10:31:38;;;;;;;9.60;2.45;;;17.30;40.00;;;;;;5032861;28;20029;-82
2021/04/22 10:34:09;;;;;;;13.53;3.00;;;17.40;39.70;;;;;;5032093;28;20049;-84
2021/04/22 10:36:37;;;;;;;12.45;2.72;;;16.70;40.70;;;;;;5031822;28;20116;-83
2021/04/22 10:39:04;;;;;;;14.18;2.60;;;15.70;41.10;;;;;;5030772;28;20038;-83
2021/04/22 10:41:35;;;;;;;14.80;2.92;;;16.40;41.60;;;;;;5032103;28;20044;-83
2021/04/22 10:44:02;;;;;;;8.15;2.55;;;15.70;40.00;;;;;;5032256;28;20029;-82
2021/04/22 10:46:28;;;;;;;12.60;2.47;;;15.30;41.30;;;;;;5030715;28;20040;-85
2021/04/22 10:48:55;;;;;;;13.07;2.88;;;15.80;41.30;;;;;;5020509;28;20057;-85
2021/04/22 10:51:21;;;;;;;13.43;2.65;;;16.10;40.70;;;;;;5031816;28;20038;-84
2021/04/22 10:53:47;;;;;;;14.63;2.33;;;15.90;40.30;;;;;;5031485;28;20029;-84
2021/04/22 10:56:12;;;;;;;15.75;2.70;;;15.80;40.40;;;;;;5031873;28;20083;-82
2021/04/22 10:58:43;;;;;;;13.65;2.55;;;15.60;40.90;;;;;;5031992;28;20018;-83
2021/04/22 11:01:13;;;;;;;11.63;3.17;;;15.30;41.20;;;;;;5031488;28;20123;-82
2021/04/22 11:03:47;;;;;;;9.32;2.58;;;15.00;41.20;;;;;;5031363;28;20136;-84
2021/04/22 11:06:19;;;;;;;10.85;2.67;;;15.10;41.80;;;;;;5031346;28;20071;-84
2021/04/22 11:08:54;;;;;;;7.65;3.53;;;15.50;41.40;;;;;;5031356;28;20087;-83
2021/04/22 11:11:21;;;;;;;16.35;2.85;;;15.50;41.60;;;;;;5030959;28;20087;-82
2021/04/22 11:13:49;;;;;;;11.02;2.10;;;15.90;41.80;;;;;;5031618;28;20041;-83
2021/04/22 11:16:31;;;;;;;12.07;2.95;;;16.20;41.40;;;;;;5031152;28;20041;-83
2021/04/22 11:18:57;;;;;;;9.85;2.28;;;15.80;40.70;;;;;;5031041;28;20076;-81
2021/04/22 11:21:36;;;;;;;11.63;2.47;;;15.80;40.50;;;;;;5030002;28;20033;-84
2021/04/22 11:24:03;;;;;;;13.35;3.25;;;15.80;40.80;;;;;;5030389;28;20107;-82
2021/04/22 11:26:34;;;;;;;12.70;2.27;;;15.30;40.80;;;;;;5031164;28;20069;-84
2021/04/22 11:29:17;;;;;;;10.48;2.08;;;15.00;41.50;;;;;;5032374;28;20356;-83
2021/04/22 11:31:48;;;;;;;13.07;2.83;;;15.40;41.50;;;;;;5031020;28;20484;-83
2021/04/22 11:34:15;;;;;;;9.57;2.80;;;15.10;41.10;;;;;;5031221;28;20033;-82
2021/04/22 11:36:49;;;;;;;16.55;2.60;;;15.10;41.10;;;;;;5029397;28;20044;-83
2021/04/22 11:39:16;;;;;;;14.20;2.65;;;15.00;41.30;;;;;;5030436;28;20029;-86
2021/04/22 11:41:55;;;;;;;9.65;2.10;;;15.30;41.50;;;;;;5030601;28;20357;-83
2021/04/22 11:44:31;;;;;;;13.27;2.03;;;15.50;41.40;;;;;;5030779;28;20029;-85
2021/04/22 11:46:57;;;;;;;11.75;2.35;;;15.80;41.20;;;;;;5032118;28;20032;-85
2021/04/22 11:49:28;;;;;;;9.23;2.42;;;16.00;39.60;;;;;;5029152;28;20029;-84
2021/04/22 11:51:54;;;;;;;17.63;2.80;;;15.80;38.80;;;;;;5030583;28;20351;-84
2021/04/22 11:54:32;;;;;;;11.13;2.80;;;15.40;39.00;;;;;;5030344;28;20485;-84
2021/04/22 11:57:04;;;;;;;10.75;2.85;;;15.00;39.80;;;;;;5029946;28;20056;-83
2021/04/22 11:59:33;;;;;;;14.50;2.53;;;14.80;40.80;;;;;;5029166;28;20048;-83
2021/04/22 12:02:05;;;;;;;12.40;2.20;;;15.20;40.90;;;;;;5031819;28;20014;-82
2021/04/22 12:04:52;;;;;;;12.45;2.92;;;15.00;40.90;;;;;;5030413;28;20250;-80
2021/04/22 12:07:22;;;;;;;11.60;2.22;;;15.10;41.00;;;;;;5029289;28;20132;-83
2021/04/22 12:09:51;;;;;;;17.45;2.70;;;15.10;40.60;;;;;;5029375;28;20170;-83
2021/04/22 12:12:25;;;;;;;9.35;2.63;;;15.10;40.60;;;;;;5030293;28;20533;-82
2021/04/22 12:14:56;;;;;;;8.20;2.15;;;15.20;40.40;;;;;;5029947;28;20045;-84
2021/04/22 12:17:29;;;;;;;11.43;3.13;;;15.20;41.10;;;;;;5028634;28;20028;-83
2021/04/22 12:19:58;;;;;;;13.90;2.88;;;15.20;41.60;;;;;;5030715;28;20137;-83
2021/04/22 12:22:28;;;;;;;13.40;2.42;;;15.50;41.20;;;;;;5029768;28;20198;-83
2021/04/22 12:24:54;;;;;;;16.55;2.28;;;15.50;40.00;;;;;;5028932;28;20099;-82
2021/04/22 12:27:58;;;;;;;12.57;2.25;;;15.40;40.40;;;;;;5029777;28;20038;-84
2021/04/22 12:30:31;;;;;;;10.63;1.90;;;15.40;40.70;;;;;;5030194;28;20344;-81
2021/04/22 12:33:07;;;;;;;12.23;2.65;;;15.50;41.00;;;;;;5029876;28;20057;-83
2021/04/22 12:35:34;;;;;;;10.32;1.80;;;15.30;41.00;;;;;;5029753;28;20052;-83
2021/04/22 12:38:17;;;;;;;13.88;2.58;;;15.20;39.40;;;;;;5031111;28;20032;-83
2021/04/22 12:40:46;;;;;;;11.32;2.40;;;15.10;39.50;;;;;;5029974;28;20033;-82
2021/04/22 12:43:12;;;;;;;11.75;2.17;;;15.10;40.10;;;;;;5029562;28;20478;-82
2021/04/22 12:45:38;;;;;;;8.85;2.60;;;15.20;40.00;;;;;;5028158;28;20499;-83